createdAt,value
2018-10-19T00:01:37.936Z,99.90
2018-10-19T00:04:06.155Z,99.90
2018-10-19T00:06:34.361Z,99.90
2018-10-19T00:09:02.663Z,99.90
2018-10-19T00:11:30.829Z,99.90
2018-10-19T00:13:59.028Z,99.90
2018-10-19T00:16:27.238Z,99.90
2018-10-19T00:18:55.440Z,99.90
2018-10-19T00:21:23.653Z,99.90
2018-10-19T00:23:51.860Z,99.90
2018-10-19T00:26:20.064Z,99.90
2018-10-19T00:28:48.267Z,99.90
2018-10-19T00:31:16.525Z,99.90
2018-10-19T00:33:44.726Z,99.90
2018-10-19T00:36:12.933Z,99.90
2018-10-19T00:38:41.133Z,99.90
2018-10-19T00:41:09.394Z,99.90
2018-10-19T00:43:37.541Z,99.90
2018-10-19T00:46:05.760Z,99.90
2018-10-19T00:48:33.963Z,99.90
2018-10-19T00:51:02.185Z,99.90
2018-10-19T00:53:30.380Z,99.90
2018-10-19T00:55:58.571Z,99.90
2018-10-19T00:58:26.783Z,99.90
2018-10-19T01:00:55.039Z,99.90
2018-10-19T01:03:23.236Z,99.90
2018-10-19T01:05:51.512Z,99.90
2018-10-19T01:08:19.725Z,99.90
2018-10-19T01:10:47.951Z,99.90
2018-10-19T01:13:16.179Z,99.90
2018-10-19T01:15:44.404Z,99.90
2018-10-19T01:18:12.628Z,99.90
2018-10-19T01:20:40.855Z,99.90
2018-10-19T01:23:09.121Z,99.90
2018-10-19T01:25:40.422Z,99.90
2018-10-19T01:28:09.197Z,99.90
2018-10-19T01:30:37.438Z,99.90
2018-10-19T01:33:05.712Z,99.90
2018-10-19T01:35:33.903Z,99.90
2018-10-19T01:38:02.120Z,99.90
2018-10-19T01:40:30.345Z,99.90
2018-10-19T01:42:58.552Z,99.90
2018-10-19T01:45:28.564Z,99.90
2018-10-19T01:47:56.994Z,99.90
2018-10-19T01:50:25.228Z,99.90
2018-10-19T01:52:53.538Z,99.90
2018-10-19T01:55:21.747Z,99.90
2018-10-19T01:57:49.968Z,99.90
2018-10-19T02:00:18.190Z,99.90
2018-10-19T02:02:46.461Z,99.90
2018-10-19T02:05:14.719Z,99.90
2018-10-19T02:07:42.902Z,99.90
2018-10-19T02:10:11.124Z,99.90
2018-10-19T02:12:39.344Z,99.90
2018-10-19T02:15:08.103Z,99.90
2018-10-19T02:17:36.291Z,99.90
2018-10-19T02:20:04.514Z,99.90
2018-10-19T02:22:32.732Z,99.90
2018-10-19T02:25:00.967Z,99.90
2018-10-19T02:27:29.186Z,99.90
2018-10-19T02:29:57.396Z,99.90
2018-10-19T02:32:25.609Z,99.90
2018-10-19T02:34:53.800Z,99.90
2018-10-19T02:37:22.020Z,99.90
2018-10-19T02:39:50.220Z,99.90
2018-10-19T02:42:18.419Z,99.90
2018-10-19T02:44:46.641Z,99.90
2018-10-19T02:47:14.920Z,99.90
2018-10-19T02:49:43.067Z,99.90
2018-10-19T02:52:11.278Z,99.90
2018-10-19T02:54:39.484Z,99.90
2018-10-19T02:57:08.009Z,99.90
2018-10-19T02:59:36.164Z,99.90
2018-10-19T03:02:04.581Z,99.90
2018-10-19T03:04:32.812Z,99.90
2018-10-19T03:07:01.027Z,99.90
2018-10-19T03:09:29.252Z,99.90
2018-10-19T03:11:57.480Z,99.90
2018-10-19T03:14:26.026Z,99.90
2018-10-19T03:16:54.250Z,99.90
2018-10-19T03:19:22.480Z,99.90
2018-10-19T03:21:50.727Z,99.90
2018-10-19T03:24:18.968Z,99.90
2018-10-19T03:26:47.199Z,99.90
2018-10-19T03:29:15.537Z,99.90
2018-10-19T03:31:43.685Z,99.90
2018-10-19T03:34:11.904Z,99.90
2018-10-19T03:36:40.140Z,99.90
2018-10-19T03:39:09.288Z,99.90
2018-10-19T03:41:37.644Z,99.90
2018-10-19T03:44:05.961Z,99.90
2018-10-19T03:46:34.228Z,99.90
2018-10-19T03:49:02.499Z,99.90
2018-10-19T03:51:30.703Z,99.90
2018-10-19T03:53:58.936Z,99.90
2018-10-19T03:56:27.148Z,99.90
2018-10-19T03:58:55.405Z,99.90
2018-10-19T04:01:23.589Z,99.90
2018-10-19T04:03:51.831Z,99.90
2018-10-19T04:06:20.071Z,99.90
2018-10-19T04:08:48.325Z,99.90
2018-10-19T04:11:16.695Z,99.90
2018-10-19T04:13:44.839Z,99.90
2018-10-19T04:16:13.061Z,99.90
2018-10-19T04:18:41.267Z,99.90
2018-10-19T04:21:09.530Z,99.90
2018-10-19T04:23:37.693Z,99.90
2018-10-19T04:26:06.016Z,99.90
2018-10-19T04:28:34.232Z,99.90
2018-10-19T04:31:02.451Z,99.90
2018-10-19T04:33:30.656Z,99.90
2018-10-19T04:35:58.867Z,99.90
2018-10-19T04:38:27.102Z,99.90
2018-10-19T04:40:55.317Z,99.90
2018-10-19T04:43:23.627Z,99.90
2018-10-19T04:45:52.016Z,99.90
2018-10-19T04:48:20.228Z,99.90
2018-10-19T04:50:48.435Z,99.90
2018-10-19T04:53:16.750Z,99.90
2018-10-19T04:55:44.856Z,99.90
2018-10-19T04:58:13.077Z,99.90
2018-10-19T05:00:41.299Z,99.90
2018-10-19T05:03:09.617Z,99.90
2018-10-19T05:05:37.762Z,99.90
2018-10-19T05:08:06.062Z,99.90
2018-10-19T05:10:34.247Z,99.90
2018-10-19T05:13:02.547Z,99.90
2018-10-19T05:15:30.673Z,99.90
2018-10-19T05:17:58.888Z,99.90
2018-10-19T05:20:27.099Z,99.90
2018-10-19T05:22:55.320Z,99.90
2018-10-19T05:25:23.532Z,99.90
2018-10-19T05:27:51.741Z,99.90
2018-10-19T05:30:19.947Z,99.90
2018-10-19T05:32:48.203Z,99.90
2018-10-19T05:35:16.460Z,99.90
2018-10-19T05:37:44.606Z,99.90
2018-10-19T05:40:12.827Z,99.90
2018-10-19T05:42:41.075Z,99.90
2018-10-19T05:45:10.491Z,99.90
2018-10-19T05:47:38.716Z,99.90
2018-10-19T05:50:07.946Z,99.90
2018-10-19T05:52:36.597Z,99.90
2018-10-19T05:55:04.762Z,99.90
2018-10-19T05:57:32.976Z,99.90
2018-10-19T06:00:01.192Z,99.90
2018-10-19T06:02:29.978Z,99.90
2018-10-19T06:04:58.077Z,99.90
2018-10-19T06:07:26.292Z,99.90
2018-10-19T06:09:54.494Z,99.90
2018-10-19T06:12:22.723Z,99.90
2018-10-19T06:14:50.944Z,99.90
2018-10-19T06:17:19.155Z,99.90
2018-10-19T06:19:47.392Z,99.90
2018-10-19T06:22:15.631Z,99.90
2018-10-19T06:24:43.835Z,99.90
2018-10-19T06:27:12.063Z,99.90
2018-10-19T06:29:40.481Z,99.90
2018-10-19T06:32:08.765Z,99.90
2018-10-19T06:34:36.936Z,99.90
2018-10-19T06:37:05.293Z,99.90
2018-10-19T06:39:33.543Z,99.90
2018-10-19T06:42:01.777Z,99.90
2018-10-19T06:44:30.004Z,99.90
2018-10-19T06:46:58.257Z,99.90
2018-10-19T06:49:26.461Z,99.90
2018-10-19T06:51:54.712Z,99.90
2018-10-19T06:54:22.945Z,99.90
2018-10-19T06:56:51.260Z,99.90
2018-10-19T06:59:19.553Z,99.90
2018-10-19T07:01:47.731Z,99.90
2018-10-19T07:04:15.951Z,99.90
2018-10-19T07:06:44.184Z,99.90
2018-10-19T07:09:12.399Z,99.90
2018-10-19T07:11:40.603Z,99.90
2018-10-19T07:14:08.840Z,99.90
2018-10-19T07:16:37.044Z,99.90
2018-10-19T07:19:05.606Z,99.90
2018-10-19T07:21:33.819Z,99.90
2018-10-19T07:24:02.001Z,99.90
2018-10-19T07:26:30.212Z,99.90
2018-10-19T07:28:58.432Z,99.90
2018-10-19T07:31:26.647Z,99.90
2018-10-19T07:33:55.143Z,99.90
2018-10-19T07:36:23.636Z,99.90
2018-10-19T07:38:51.965Z,99.90
2018-10-19T07:41:20.167Z,99.90
2018-10-19T07:43:48.376Z,99.90
2018-10-19T07:46:16.604Z,99.90
2018-10-19T07:48:44.823Z,99.90
2018-10-19T07:51:13.031Z,99.90
2018-10-19T07:53:41.244Z,99.90
2018-10-19T07:56:09.517Z,99.90
2018-10-19T07:58:37.740Z,99.90
2018-10-19T08:01:06.007Z,99.90
2018-10-19T08:03:34.172Z,99.90
2018-10-19T08:06:02.406Z,99.90
2018-10-19T08:08:30.607Z,99.90
2018-10-19T08:10:58.841Z,99.00
2018-10-19T08:13:27.056Z,95.50
2018-10-19T08:15:55.292Z,93.40
2018-10-19T08:18:23.524Z,90.40
2018-10-19T08:20:51.735Z,88.20
2018-10-19T08:23:19.943Z,78.10
2018-10-19T08:25:48.160Z,77.60
2018-10-19T08:28:16.372Z,74.80
2018-10-19T08:30:44.612Z,70.30
2018-10-19T08:33:12.824Z,68.30
2018-10-19T08:35:41.101Z,63.30
2018-10-19T08:38:09.323Z,62.30
2018-10-19T08:40:37.543Z,58.50
2018-10-19T08:43:06.403Z,57.90
2018-10-19T08:45:34.569Z,58.20
2018-10-19T08:48:02.777Z,55.80
2018-10-19T08:50:31.000Z,56.80
2018-10-19T08:52:59.244Z,56.10
2018-10-19T08:55:27.441Z,54.90
2018-10-19T08:57:55.714Z,53.70
2018-10-19T09:00:23.886Z,53.50
2018-10-19T09:02:52.100Z,50.60
2018-10-19T09:05:20.316Z,51.80
2018-10-19T09:07:48.532Z,46.60
2018-10-19T09:10:16.748Z,45.40
2018-10-19T09:12:45.053Z,45.10
2018-10-19T09:15:13.221Z,42.80
2018-10-19T09:17:41.428Z,41.60
2018-10-19T09:20:09.646Z,41.30
2018-10-19T09:22:37.956Z,40.70
2018-10-19T09:25:06.229Z,41.10
2018-10-19T09:27:34.448Z,40.80
2018-10-19T09:30:02.651Z,40.80
2018-10-19T09:32:30.871Z,41.40
2018-10-19T09:34:59.135Z,39.20
2018-10-19T09:37:27.312Z,40.00
2018-10-19T09:39:55.522Z,41.00
2018-10-19T09:42:23.731Z,40.70
2018-10-19T09:44:51.935Z,42.80
2018-10-19T09:47:20.181Z,45.10
2018-10-19T09:49:48.387Z,47.00
2018-10-19T09:52:16.607Z,45.40
2018-10-19T09:54:44.821Z,45.80
2018-10-19T09:57:13.135Z,46.90
2018-10-19T09:59:41.275Z,47.40
2018-10-19T10:02:09.582Z,46.50
2018-10-19T10:04:37.767Z,48.10
2018-10-19T10:07:06.123Z,50.30
2018-10-19T10:09:34.288Z,52.40
2018-10-19T10:12:02.513Z,53.30
2018-10-19T10:14:30.744Z,54.50
2018-10-19T10:16:59.029Z,55.30
2018-10-19T10:19:27.212Z,55.20
2018-10-19T10:21:55.443Z,56.80
2018-10-19T10:24:23.680Z,55.50
2018-10-19T10:26:51.956Z,56.00
2018-10-19T10:29:20.208Z,54.40
2018-10-19T10:31:48.448Z,52.60
2018-10-19T10:34:16.744Z,52.30
2018-10-19T10:36:44.931Z,50.30
2018-10-19T10:39:14.130Z,50.30
2018-10-19T10:41:42.219Z,48.90
2018-10-19T10:44:10.479Z,49.40
2018-10-19T10:46:38.714Z,51.30
2018-10-19T10:49:07.052Z,52.00
2018-10-19T10:51:35.259Z,52.90
2018-10-19T10:54:03.486Z,53.10
2018-10-19T10:56:31.716Z,52.80
2018-10-19T10:58:59.938Z,52.00
2018-10-19T11:01:28.169Z,51.80
2018-10-19T11:03:56.480Z,50.30
2018-10-19T11:06:24.659Z,49.10
2018-10-19T11:08:52.895Z,49.60
2018-10-19T11:11:21.123Z,50.10
2018-10-19T11:13:49.332Z,50.80
2018-10-19T11:16:17.548Z,51.80
2018-10-19T11:18:45.764Z,53.30
2018-10-19T11:21:13.984Z,53.30
2018-10-19T11:23:42.209Z,53.90
2018-10-19T11:26:10.424Z,55.40
2018-10-19T11:28:38.628Z,56.60
2018-10-19T11:31:06.918Z,57.80
2018-10-19T11:33:35.076Z,56.20
2018-10-19T11:36:03.281Z,55.90
2018-10-19T11:38:31.507Z,55.40
2018-10-19T11:40:59.736Z,53.90
2018-10-19T11:43:27.958Z,52.70
2018-10-19T11:45:56.187Z,52.50
2018-10-19T11:48:24.403Z,51.80
2018-10-19T11:50:52.619Z,50.30
2018-10-19T11:53:20.848Z,49.40
2018-10-19T11:55:49.060Z,49.00
2018-10-19T11:58:17.405Z,49.40
2018-10-19T12:00:45.505Z,51.20
2018-10-19T12:03:13.712Z,50.00
2018-10-19T12:05:41.946Z,50.60
2018-10-19T12:08:10.160Z,51.60
2018-10-19T12:10:38.411Z,51.60
2018-10-19T12:13:06.675Z,51.70
2018-10-19T12:15:34.847Z,52.80
2018-10-19T12:18:03.066Z,52.50
2018-10-19T12:20:31.277Z,53.70
2018-10-19T12:22:59.504Z,54.80
2018-10-19T12:25:27.721Z,56.40
2018-10-19T12:27:55.960Z,57.10
2018-10-19T12:30:24.256Z,57.10
2018-10-19T12:32:52.510Z,58.50
2018-10-19T12:35:20.721Z,59.20
2018-10-19T12:37:48.933Z,59.70
2018-10-19T12:40:17.139Z,60.30
2018-10-19T12:42:45.363Z,59.80
2018-10-19T12:46:25.879Z,59.80
2018-10-19T12:48:54.621Z,60.30
2018-10-19T12:51:22.784Z,60.00
2018-10-19T12:53:51.013Z,60.60
2018-10-19T12:56:20.011Z,60.80
2018-10-19T12:58:49.212Z,61.20
2018-10-19T13:01:17.487Z,60.90
2018-10-19T13:03:45.712Z,60.70
2018-10-19T13:06:13.923Z,60.90
2018-10-19T13:08:42.143Z,60.50
2018-10-19T13:11:10.364Z,60.10
2018-10-19T13:13:38.600Z,59.90
2018-10-19T13:16:06.867Z,60.00
2018-10-19T13:18:35.051Z,60.30
2018-10-19T13:21:03.412Z,60.90
2018-10-19T13:23:32.276Z,61.40
2018-10-19T13:26:00.746Z,61.80
2018-10-19T13:28:28.996Z,61.00
2018-10-19T13:30:57.225Z,60.70
2018-10-19T13:33:25.655Z,60.50
2018-10-19T13:35:53.951Z,60.10
2018-10-19T13:38:22.646Z,59.40
2018-10-19T13:40:52.252Z,58.70
2018-10-19T13:43:20.510Z,57.20
2018-10-19T13:45:48.853Z,57.50
2018-10-19T13:48:17.080Z,57.40
2018-10-19T13:50:45.315Z,58.20
2018-10-19T13:53:13.536Z,58.40
2018-10-19T13:55:41.764Z,59.70
2018-10-19T13:58:09.983Z,60.70
2018-10-19T14:00:38.446Z,62.20
2018-10-19T14:03:06.682Z,63.30
2018-10-19T14:05:35.354Z,64.00
2018-10-19T14:08:03.417Z,64.30
2018-10-19T14:10:31.637Z,64.50
2018-10-19T14:12:59.839Z,64.80
2018-10-19T14:15:28.056Z,65.50
2018-10-19T14:17:56.267Z,66.00
2018-10-19T14:20:24.493Z,66.90
2018-10-19T14:22:52.724Z,67.10
2018-10-19T14:25:20.912Z,68.40
2018-10-19T14:27:49.183Z,68.30
2018-10-19T14:30:18.279Z,68.70
2018-10-19T14:32:46.510Z,70.00
2018-10-19T14:35:15.113Z,70.70
2018-10-19T14:37:44.376Z,71.20
2018-10-19T14:40:14.158Z,71.80
2018-10-19T14:42:42.830Z,73.10
2018-10-19T14:45:12.332Z,73.50
2018-10-19T14:47:41.351Z,74.20
2018-10-19T14:50:11.452Z,75.80
2018-10-19T14:52:39.667Z,76.70
2018-10-19T14:55:10.784Z,77.20
2018-10-19T14:57:39.016Z,78.30
2018-10-19T15:00:09.056Z,80.00
2018-10-19T15:02:37.379Z,81.60
2018-10-19T15:05:06.103Z,82.80
2018-10-19T15:07:34.335Z,84.10
2018-10-19T15:10:02.703Z,84.70
2018-10-19T15:12:30.825Z,87.10
2018-10-19T15:14:59.123Z,88.10
2018-10-19T15:17:27.312Z,90.00
2018-10-19T15:19:55.540Z,90.50
2018-10-19T15:22:23.795Z,91.00
2018-10-19T15:24:52.227Z,92.20
2018-10-19T15:27:20.469Z,92.70
2018-10-19T15:29:48.772Z,93.00
2018-10-19T15:32:16.964Z,93.40
2018-10-19T15:34:45.204Z,94.10
2018-10-19T15:37:13.466Z,95.00
2018-10-19T15:39:41.705Z,95.80
2018-10-19T15:42:10.011Z,96.60
2018-10-19T15:44:38.169Z,97.70
2018-10-19T15:47:06.389Z,99.10
2018-10-19T15:49:34.623Z,99.90
2018-10-19T15:52:02.974Z,99.90
2018-10-19T15:54:31.204Z,99.90
2018-10-19T15:56:59.506Z,99.90
2018-10-19T15:59:28.179Z,99.90
2018-10-19T16:01:56.407Z,99.90
2018-10-19T16:04:24.640Z,99.90
2018-10-19T16:06:52.871Z,99.90
2018-10-19T16:09:21.112Z,99.90
2018-10-19T16:11:49.351Z,99.90
2018-10-19T16:14:17.585Z,99.90
2018-10-19T16:16:45.816Z,99.90
2018-10-19T16:19:14.044Z,99.90
2018-10-19T16:21:42.269Z,99.90
2018-10-19T16:24:10.599Z,99.90
2018-10-19T16:26:38.744Z,99.90
2018-10-19T16:29:06.988Z,99.90
2018-10-19T16:31:35.216Z,99.90
2018-10-19T16:34:03.459Z,99.90
2018-10-19T16:36:31.689Z,99.90
2018-10-19T16:38:59.977Z,99.90
2018-10-19T16:41:28.188Z,99.90
2018-10-19T16:43:56.411Z,99.90
2018-10-19T16:46:24.774Z,99.90
2018-10-19T16:48:52.896Z,99.90
2018-10-19T16:51:21.136Z,99.90
2018-10-19T16:53:49.460Z,99.90
2018-10-19T16:56:17.588Z,99.90
2018-10-19T16:58:45.820Z,99.90
2018-10-19T17:01:14.174Z,99.90
2018-10-19T17:03:42.510Z,99.90
2018-10-19T17:06:11.554Z,99.90
2018-10-19T17:08:39.805Z,99.90
2018-10-19T17:11:08.153Z,99.90
2018-10-19T17:13:36.408Z,99.90
2018-10-19T17:16:05.079Z,99.90
2018-10-19T17:18:33.380Z,99.90
2018-10-19T17:21:02.485Z,99.90
2018-10-19T17:23:31.481Z,99.90
2018-10-19T17:26:00.513Z,99.90
2018-10-19T17:28:29.565Z,99.90
2018-10-19T17:30:58.700Z,99.90
2018-10-19T17:33:28.399Z,99.90
2018-10-19T17:35:57.715Z,99.90
2018-10-19T17:38:26.725Z,99.90
2018-10-19T17:40:55.755Z,99.90
2018-10-19T17:43:24.777Z,99.90
2018-10-19T17:45:54.825Z,99.90
2018-10-19T17:48:23.833Z,99.90
2018-10-19T17:50:53.596Z,99.90
2018-10-19T17:53:22.400Z,99.90
2018-10-19T17:55:51.369Z,99.90
2018-10-19T17:58:20.407Z,99.90
2018-10-19T18:00:49.113Z,99.90
2018-10-19T18:03:18.093Z,99.90
2018-10-19T18:05:46.404Z,99.90
2018-10-19T18:08:14.722Z,99.90
2018-10-19T18:10:43.100Z,99.90
2018-10-19T18:13:11.373Z,99.90
2018-10-19T18:15:39.690Z,99.90
2018-10-19T18:18:07.899Z,99.90
2018-10-19T18:20:36.143Z,99.90
2018-10-19T18:23:04.550Z,99.90
2018-10-19T18:25:32.683Z,99.90
2018-10-19T18:28:00.928Z,99.90
2018-10-19T18:30:29.218Z,99.90
2018-10-19T18:32:57.461Z,99.90
2018-10-19T18:35:25.719Z,99.90
2018-10-19T18:37:54.702Z,99.90
2018-10-19T18:40:23.007Z,99.90
2018-10-19T18:42:51.262Z,99.90
2018-10-19T18:45:19.503Z,99.90
2018-10-19T18:47:47.848Z,99.90
2018-10-19T18:50:16.230Z,99.90
2018-10-19T18:52:44.367Z,99.90
2018-10-19T18:55:12.697Z,99.90
2018-10-19T18:57:40.882Z,99.90
2018-10-19T19:00:10.258Z,99.90
2018-10-19T19:02:38.549Z,99.90
2018-10-19T19:05:06.828Z,99.90
2018-10-19T19:07:35.081Z,99.90
2018-10-19T19:10:12.362Z,99.90
2018-10-19T19:12:40.666Z,99.90
2018-10-19T19:15:09.348Z,99.90
2018-10-19T19:17:37.661Z,99.90
2018-10-19T19:20:12.154Z,99.90
2018-10-19T19:22:40.659Z,99.90
2018-10-19T19:25:14.278Z,99.90
2018-10-19T19:27:42.613Z,99.90
2018-10-19T19:30:11.063Z,99.90
2018-10-19T19:32:43.561Z,99.90
2018-10-19T19:35:11.875Z,99.90
2018-10-19T19:37:40.108Z,99.90
2018-10-19T19:40:08.362Z,99.90
2018-10-19T19:42:42.096Z,99.90
2018-10-19T19:45:10.348Z,99.90
2018-10-19T19:48:45.746Z,99.90
2018-10-19T19:51:14.060Z,99.90
2018-10-19T19:53:42.679Z,99.90
2018-10-19T19:56:11.383Z,99.90
2018-10-19T19:58:40.044Z,99.90
2018-10-19T20:01:09.543Z,99.90
2018-10-19T20:03:38.423Z,99.90
2018-10-19T20:06:07.251Z,99.90
2018-10-19T20:08:35.516Z,99.90
2018-10-19T20:11:04.487Z,99.90
2018-10-19T20:13:33.061Z,99.90
2018-10-19T20:16:01.402Z,99.90
2018-10-19T20:18:29.675Z,99.90
2018-10-19T20:20:57.899Z,99.90
2018-10-19T20:23:26.131Z,99.90
2018-10-19T20:25:54.429Z,99.90
2018-10-19T20:28:22.623Z,99.90
2018-10-19T20:30:50.946Z,99.90
2018-10-19T20:33:19.272Z,99.90
2018-10-19T20:35:48.288Z,99.90
2018-10-19T20:38:16.602Z,99.90
2018-10-19T20:40:44.802Z,99.90
2018-10-19T20:43:13.155Z,99.90
2018-10-19T20:45:41.429Z,99.90
2018-10-19T20:48:09.686Z,99.90
2018-10-19T20:50:37.978Z,99.90
2018-10-19T20:53:06.226Z,99.90
2018-10-19T20:55:34.617Z,99.90
2018-10-19T20:58:02.818Z,99.90
2018-10-19T21:00:31.055Z,99.90
2018-10-19T21:02:59.300Z,99.90
2018-10-19T21:05:27.528Z,99.90
2018-10-19T21:07:55.783Z,99.90
2018-10-19T21:10:23.993Z,99.90
2018-10-19T21:12:52.236Z,99.90
2018-10-19T21:15:20.478Z,99.90
2018-10-19T21:17:48.730Z,99.90
2018-10-19T21:20:16.970Z,99.90
2018-10-19T21:22:45.337Z,99.90
2018-10-19T21:25:13.589Z,99.90
2018-10-19T21:27:41.821Z,99.90
2018-10-19T21:30:11.549Z,99.90
2018-10-19T21:32:39.772Z,99.90
2018-10-19T21:35:08.078Z,99.90
2018-10-19T21:37:36.248Z,99.90
2018-10-19T21:40:04.504Z,99.90
2018-10-19T21:42:32.720Z,99.90
2018-10-19T21:45:00.940Z,99.90
2018-10-19T21:47:29.375Z,99.90
2018-10-19T21:49:57.866Z,99.90
2018-10-19T21:52:26.074Z,99.90
2018-10-19T21:54:54.303Z,99.90
2018-10-19T21:57:22.520Z,99.90
2018-10-19T21:59:50.739Z,99.90
2018-10-19T22:02:18.960Z,99.90
2018-10-19T22:04:47.181Z,99.90
2018-10-19T22:07:15.877Z,99.90
2018-10-19T22:09:44.100Z,99.90
2018-10-19T22:12:12.331Z,99.90
2018-10-19T22:14:40.560Z,99.90
2018-10-19T22:17:08.840Z,99.90
2018-10-19T22:19:37.018Z,99.90
2018-10-19T22:22:05.407Z,99.90
2018-10-19T22:24:33.636Z,99.90
2018-10-19T22:27:01.872Z,99.90
2018-10-19T22:29:30.108Z,99.90
2018-10-19T22:31:58.343Z,99.90
2018-10-19T22:34:26.571Z,99.90
2018-10-19T22:36:54.807Z,99.90
2018-10-19T22:39:23.016Z,99.90
2018-10-19T22:41:51.248Z,99.90
2018-10-19T22:44:19.467Z,99.90
2018-10-19T22:46:47.708Z,99.90
2018-10-19T22:49:15.972Z,99.90
2018-10-19T22:51:44.162Z,99.90
2018-10-19T22:54:12.393Z,99.90
2018-10-19T22:56:40.650Z,99.90
2018-10-19T22:59:08.912Z,99.90
2018-10-19T23:01:37.065Z,99.90
2018-10-19T23:04:05.660Z,99.90
2018-10-19T23:06:33.884Z,99.90
2018-10-19T23:09:02.111Z,99.90
2018-10-19T23:11:30.454Z,99.90
2018-10-19T23:13:58.674Z,99.90
2018-10-19T23:16:26.904Z,99.90
2018-10-19T23:18:55.192Z,99.90
2018-10-19T23:21:23.373Z,99.90
2018-10-19T23:23:51.601Z,99.90
2018-10-19T23:26:19.819Z,99.90
2018-10-19T23:28:48.047Z,99.90
2018-10-19T23:31:16.394Z,99.90
2018-10-19T23:33:44.529Z,99.90
2018-10-19T23:36:12.753Z,99.90
2018-10-19T23:38:40.968Z,99.90
2018-10-19T23:41:09.278Z,99.90
2018-10-19T23:43:37.460Z,99.90
2018-10-19T23:46:05.891Z,99.90
2018-10-19T23:48:34.103Z,99.90
2018-10-19T23:51:02.337Z,99.90
2018-10-19T23:53:30.540Z,99.90
2018-10-19T23:55:58.752Z,99.90
2018-10-19T23:58:26.976Z,99.90
